sensor_id;sensor_type;location;lat;lon;timestamp;P1;durP1;ratioP1;P2;durP2;ratioP2
19388;SDS011;9830;41.876;23.474;2023-01-15T00:01:04;1.17;;;0.87;;
19388;SDS011;9830;41.876;23.474;2023-01-15T00:03:30;2.47;;;1.70;;
19388;SDS011;9830;41.876;23.474;2023-01-15T00:06:00;1.40;;;0.97;;
19388;SDS011;9830;41.876;23.474;2023-01-15T00:08:27;4.30;;;1.93;;
19388;SDS011;9830;41.876;23.474;2023-01-15T00:10:53;5.03;;;2.77;;
19388;SDS011;9830;41.876;23.474;2023-01-15T00:13:20;3.37;;;1.63;;
19388;SDS011;9830;41.876;23.474;2023-01-15T00:15:46;1.43;;;1.33;;
19388;SDS011;9830;41.876;23.474;2023-01-15T00:18:11;16.47;;;1.30;;
19388;SDS011;9830;41.876;23.474;2023-01-15T00:20:37;3.50;;;2.50;;
19388;SDS011;9830;41.876;23.474;2023-01-15T00:23:03;4.67;;;2.43;;
19388;SDS011;9830;41.876;23.474;2023-01-15T00:25:28;4.70;;;3.40;;
19388;SDS011;9830;41.876;23.474;2023-01-15T00:28:23;4.83;;;3.10;;
19388;SDS011;9830;41.876;23.474;2023-01-15T00:30:49;38.27;;;2.90;;
19388;SDS011;9830;41.876;23.474;2023-01-15T00:33:14;5.73;;;3.93;;
19388;SDS011;9830;41.876;23.474;2023-01-15T00:35:40;4.97;;;3.07;;
19388;SDS011;9830;41.876;23.474;2023-01-15T00:38:06;1.67;;;1.57;;
19388;SDS011;9830;41.876;23.474;2023-01-15T00:40:31;8.97;;;3.10;;
19388;SDS011;9830;41.876;23.474;2023-01-15T00:42:57;6.33;;;1.97;;
19388;SDS011;9830;41.876;23.474;2023-01-15T00:45:23;3.07;;;2.80;;
19388;SDS011;9830;41.876;23.474;2023-01-15T00:47:48;9.00;;;3.23;;
19388;SDS011;9830;41.876;23.474;2023-01-15T00:52:40;18.97;;;5.67;;
19388;SDS011;9830;41.876;23.474;2023-01-15T00:55:06;3.87;;;3.43;;
19388;SDS011;9830;41.876;23.474;2023-01-15T00:57:33;6.27;;;3.90;;
19388;SDS011;9830;41.876;23.474;2023-01-15T00:59:59;2.83;;;2.23;;
19388;SDS011;9830;41.876;23.474;2023-01-15T01:02:24;4.53;;;2.67;;
19388;SDS011;9830;41.876;23.474;2023-01-15T01:04:50;4.73;;;2.47;;
19388;SDS011;9830;41.876;23.474;2023-01-15T01:07:17;7.47;;;2.83;;
19388;SDS011;9830;41.876;23.474;2023-01-15T01:09:43;4.93;;;2.40;;
19388;SDS011;9830;41.876;23.474;2023-01-15T01:12:08;3.47;;;3.27;;
19388;SDS011;9830;41.876;23.474;2023-01-15T01:14:35;8.70;;;4.00;;
19388;SDS011;9830;41.876;23.474;2023-01-15T01:17:01;3.20;;;2.43;;
19388;SDS011;9830;41.876;23.474;2023-01-15T01:19:26;4.70;;;2.80;;
19388;SDS011;9830;41.876;23.474;2023-01-15T01:21:52;4.03;;;2.43;;
19388;SDS011;9830;41.876;23.474;2023-01-15T01:24:19;3.00;;;2.27;;
19388;SDS011;9830;41.876;23.474;2023-01-15T01:26:46;7.60;;;4.47;;
19388;SDS011;9830;41.876;23.474;2023-01-15T01:29:16;11.20;;;5.13;;
19388;SDS011;9830;41.876;23.474;2023-01-15T01:31:44;5.40;;;2.93;;
19388;SDS011;9830;41.876;23.474;2023-01-15T01:34:11;4.10;;;2.10;;
19388;SDS011;9830;41.876;23.474;2023-01-15T01:36:38;5.40;;;2.93;;
19388;SDS011;9830;41.876;23.474;2023-01-15T01:39:05;10.97;;;4.17;;
19388;SDS011;9830;41.876;23.474;2023-01-15T01:41:34;3.83;;;3.27;;
19388;SDS011;9830;41.876;23.474;2023-01-15T01:44:02;4.73;;;4.23;;
19388;SDS011;9830;41.876;23.474;2023-01-15T01:46:30;4.17;;;3.77;;
19388;SDS011;9830;41.876;23.474;2023-01-15T01:49:08;6.20;;;2.73;;
19388;SDS011;9830;41.876;23.474;2023-01-15T01:51:37;12.47;;;3.40;;
19388;SDS011;9830;41.876;23.474;2023-01-15T01:54:06;5.53;;;3.20;;
19388;SDS011;9830;41.876;23.474;2023-01-15T01:56:34;8.93;;;3.90;;
19388;SDS011;9830;41.876;23.474;2023-01-15T01:59:00;17.00;;;6.03;;
19388;SDS011;9830;41.876;23.474;2023-01-15T02:01:28;10.03;;;3.50;;
19388;SDS011;9830;41.876;23.474;2023-01-15T02:03:54;3.17;;;2.87;;
19388;SDS011;9830;41.876;23.474;2023-01-15T02:06:20;9.33;;;4.10;;
19388;SDS011;9830;41.876;23.474;2023-01-15T02:08:48;5.20;;;3.67;;
19388;SDS011;9830;41.876;23.474;2023-01-15T02:11:15;11.77;;;4.20;;
19388;SDS011;9830;41.876;23.474;2023-01-15T02:13:50;3.43;;;2.23;;
19388;SDS011;9830;41.876;23.474;2023-01-15T02:16:35;12.67;;;4.90;;
19388;SDS011;9830;41.876;23.474;2023-01-15T02:22:17;7.47;;;4.53;;
19388;SDS011;9830;41.876;23.474;2023-01-15T02:25:28;5.23;;;3.77;;
19388;SDS011;9830;41.876;23.474;2023-01-15T02:28:06;3.77;;;2.20;;
19388;SDS011;9830;41.876;23.474;2023-01-15T02:30:41;6.57;;;3.87;;
19388;SDS011;9830;41.876;23.474;2023-01-15T02:33:13;3.43;;;3.13;;
19388;SDS011;9830;41.876;23.474;2023-01-15T02:35:49;12.07;;;4.23;;
19388;SDS011;9830;41.876;23.474;2023-01-15T02:38:22;4.93;;;3.13;;
19388;SDS011;9830;41.876;23.474;2023-01-15T02:40:51;11.03;;;3.60;;
19388;SDS011;9830;41.876;23.474;2023-01-15T02:43:21;7.67;;;4.57;;
19388;SDS011;9830;41.876;23.474;2023-01-15T02:45:49;5.07;;;3.00;;
19388;SDS011;9830;41.876;23.474;2023-01-15T02:48:18;7.23;;;4.87;;
19388;SDS011;9830;41.876;23.474;2023-01-15T02:50:49;8.47;;;4.43;;
19388;SDS011;9830;41.876;23.474;2023-01-15T02:53:41;3.13;;;2.87;;
19388;SDS011;9830;41.876;23.474;2023-01-15T02:56:11;4.00;;;3.03;;
19388;SDS011;9830;41.876;23.474;2023-01-15T02:58:41;2.77;;;2.00;;
19388;SDS011;9830;41.876;23.474;2023-01-15T03:01:13;3.00;;;2.80;;
19388;SDS011;9830;41.876;23.474;2023-01-15T03:04:03;6.83;;;3.73;;
19388;SDS011;9830;41.876;23.474;2023-01-15T03:09:25;3.90;;;3.30;;
19388;SDS011;9830;41.876;23.474;2023-01-15T03:12:14;5.43;;;3.43;;
19388;SDS011;9830;41.876;23.474;2023-01-15T03:14:45;7.50;;;4.10;;
19388;SDS011;9830;41.876;23.474;2023-01-15T03:17:25;3.43;;;2.73;;
19388;SDS011;9830;41.876;23.474;2023-01-15T03:20:16;13.23;;;4.63;;
19388;SDS011;9830;41.876;23.474;2023-01-15T03:22:50;8.67;;;3.83;;
19388;SDS011;9830;41.876;23.474;2023-01-15T03:25:23;5.03;;;3.70;;
19388;SDS011;9830;41.876;23.474;2023-01-15T03:27:59;2.80;;;2.57;;
19388;SDS011;9830;41.876;23.474;2023-01-15T03:30:28;8.80;;;4.10;;
19388;SDS011;9830;41.876;23.474;2023-01-15T03:32:53;25.50;;;6.57;;
19388;SDS011;9830;41.876;23.474;2023-01-15T03:38:26;4.07;;;3.67;;
19388;SDS011;9830;41.876;23.474;2023-01-15T03:41:19;4.90;;;4.37;;
19388;SDS011;9830;41.876;23.474;2023-01-15T03:46:50;3.43;;;2.93;;
19388;SDS011;9830;41.876;23.474;2023-01-15T03:52:37;5.33;;;4.77;;
19388;SDS011;9830;41.876;23.474;2023-01-15T03:55:16;4.00;;;2.73;;
19388;SDS011;9830;41.876;23.474;2023-01-15T03:57:58;2.77;;;2.10;;
19388;SDS011;9830;41.876;23.474;2023-01-15T04:00:31;3.63;;;3.17;;
19388;SDS011;9830;41.876;23.474;2023-01-15T04:03:00;6.27;;;3.67;;
19388;SDS011;9830;41.876;23.474;2023-01-15T04:05:28;2.53;;;1.80;;
19388;SDS011;9830;41.876;23.474;2023-01-15T04:07:55;9.43;;;3.23;;
19388;SDS011;9830;41.876;23.474;2023-01-15T04:10:22;10.07;;;3.90;;
19388;SDS011;9830;41.876;23.474;2023-01-15T04:12:48;3.57;;;3.27;;
19388;SDS011;9830;41.876;23.474;2023-01-15T04:15:14;5.87;;;2.57;;
19388;SDS011;9830;41.876;23.474;2023-01-15T04:17:40;6.00;;;3.93;;
19388;SDS011;9830;41.876;23.474;2023-01-15T04:20:07;5.10;;;4.60;;
19388;SDS011;9830;41.876;23.474;2023-01-15T04:22:34;3.03;;;2.73;;
19388;SDS011;9830;41.876;23.474;2023-01-15T04:25:03;5.83;;;3.60;;
19388;SDS011;9830;41.876;23.474;2023-01-15T04:27:29;3.07;;;2.17;;
19388;SDS011;9830;41.876;23.474;2023-01-15T04:29:55;7.93;;;4.53;;
19388;SDS011;9830;41.876;23.474;2023-01-15T04:32:21;7.77;;;3.23;;
19388;SDS011;9830;41.876;23.474;2023-01-15T04:34:47;10.83;;;3.83;;
19388;SDS011;9830;41.876;23.474;2023-01-15T04:37:13;3.20;;;2.43;;
19388;SDS011;9830;41.876;23.474;2023-01-15T04:39:38;5.93;;;4.33;;
19388;SDS011;9830;41.876;23.474;2023-01-15T04:42:04;5.23;;;4.33;;
19388;SDS011;9830;41.876;23.474;2023-01-15T04:44:48;8.70;;;3.37;;
19388;SDS011;9830;41.876;23.474;2023-01-15T04:47:14;11.83;;;5.43;;
19388;SDS011;9830;41.876;23.474;2023-01-15T04:49:39;6.80;;;2.43;;
19388;SDS011;9830;41.876;23.474;2023-01-15T04:52:05;3.20;;;2.57;;
19388;SDS011;9830;41.876;23.474;2023-01-15T04:54:31;6.07;;;4.20;;
19388;SDS011;9830;41.876;23.474;2023-01-15T04:56:57;3.23;;;2.90;;
19388;SDS011;9830;41.876;23.474;2023-01-15T04:59:24;5.83;;;4.57;;
19388;SDS011;9830;41.876;23.474;2023-01-15T05:01:50;12.17;;;3.57;;
19388;SDS011;9830;41.876;23.474;2023-01-15T05:04:17;2.97;;;2.77;;
19388;SDS011;9830;41.876;23.474;2023-01-15T05:06:42;13.23;;;3.47;;
19388;SDS011;9830;41.876;23.474;2023-01-15T05:09:08;1.57;;;1.47;;
19388;SDS011;9830;41.876;23.474;2023-01-15T05:11:35;2.50;;;2.30;;
19388;SDS011;9830;41.876;23.474;2023-01-15T05:14:02;2.20;;;1.93;;
19388;SDS011;9830;41.876;23.474;2023-01-15T05:16:28;1.67;;;1.57;;
19388;SDS011;9830;41.876;23.474;2023-01-15T05:18:56;5.53;;;3.60;;
19388;SDS011;9830;41.876;23.474;2023-01-15T05:21:28;1.90;;;1.80;;
19388;SDS011;9830;41.876;23.474;2023-01-15T05:23:58;3.93;;;2.87;;
19388;SDS011;9830;41.876;23.474;2023-01-15T05:26:26;2.83;;;2.63;;
19388;SDS011;9830;41.876;23.474;2023-01-15T05:28:54;11.67;;;4.43;;
19388;SDS011;9830;41.876;23.474;2023-01-15T05:31:21;2.33;;;2.13;;
19388;SDS011;9830;41.876;23.474;2023-01-15T05:33:47;1.67;;;1.57;;
19388;SDS011;9830;41.876;23.474;2023-01-15T05:36:16;2.30;;;2.07;;
19388;SDS011;9830;41.876;23.474;2023-01-15T05:38:43;5.07;;;2.43;;
19388;SDS011;9830;41.876;23.474;2023-01-15T05:41:10;7.07;;;3.40;;
19388;SDS011;9830;41.876;23.474;2023-01-15T05:43:58;5.40;;;2.77;;
19388;SDS011;9830;41.876;23.474;2023-01-15T05:46:26;6.37;;;3.40;;
19388;SDS011;9830;41.876;23.474;2023-01-15T05:48:52;9.67;;;2.93;;
19388;SDS011;9830;41.876;23.474;2023-01-15T05:51:18;2.27;;;2.07;;
19388;SDS011;9830;41.876;23.474;2023-01-15T05:53:44;5.67;;;3.23;;
19388;SDS011;9830;41.876;23.474;2023-01-15T05:56:09;5.93;;;4.50;;
19388;SDS011;9830;41.876;23.474;2023-01-15T05:58:35;2.70;;;2.53;;
19388;SDS011;9830;41.876;23.474;2023-01-15T06:01:08;2.00;;;1.73;;
19388;SDS011;9830;41.876;23.474;2023-01-15T06:03:34;3.60;;;3.30;;
19388;SDS011;9830;41.876;23.474;2023-01-15T06:06:01;7.10;;;3.63;;
19388;SDS011;9830;41.876;23.474;2023-01-15T06:08:27;3.67;;;2.40;;
19388;SDS011;9830;41.876;23.474;2023-01-15T06:10:52;7.30;;;3.43;;
19388;SDS011;9830;41.876;23.474;2023-01-15T06:13:18;4.23;;;2.83;;
19388;SDS011;9830;41.876;23.474;2023-01-15T06:15:44;6.10;;;3.57;;
19388;SDS011;9830;41.876;23.474;2023-01-15T06:18:10;7.10;;;3.33;;
19388;SDS011;9830;41.876;23.474;2023-01-15T06:20:38;4.93;;;2.63;;
19388;SDS011;9830;41.876;23.474;2023-01-15T06:23:05;5.60;;;3.67;;
19388;SDS011;9830;41.876;23.474;2023-01-15T06:25:37;3.63;;;2.80;;
19388;SDS011;9830;41.876;23.474;2023-01-15T06:28:03;8.43;;;3.43;;
19388;SDS011;9830;41.876;23.474;2023-01-15T06:30:30;3.13;;;2.40;;
19388;SDS011;9830;41.876;23.474;2023-01-15T06:32:56;6.27;;;3.67;;
19388;SDS011;9830;41.876;23.474;2023-01-15T06:35:21;23.97;;;2.23;;
19388;SDS011;9830;41.876;23.474;2023-01-15T06:37:50;2.13;;;1.90;;
19388;SDS011;9830;41.876;23.474;2023-01-15T06:40:16;0.80;;;0.80;;
19388;SDS011;9830;41.876;23.474;2023-01-15T06:42:41;2.30;;;1.30;;
19388;SDS011;9830;41.876;23.474;2023-01-15T06:45:26;1.27;;;1.13;;
19388;SDS011;9830;41.876;23.474;2023-01-15T06:48:15;1.20;;;1.10;;
19388;SDS011;9830;41.876;23.474;2023-01-15T06:50:40;1.17;;;1.07;;
19388;SDS011;9830;41.876;23.474;2023-01-15T06:53:06;1.70;;;1.47;;
19388;SDS011;9830;41.876;23.474;2023-01-15T06:55:32;1.23;;;1.03;;
19388;SDS011;9830;41.876;23.474;2023-01-15T06:57:57;1.07;;;1.07;;
19388;SDS011;9830;41.876;23.474;2023-01-15T07:00:23;1.57;;;1.47;;
19388;SDS011;9830;41.876;23.474;2023-01-15T07:02:49;1.93;;;0.90;;
19388;SDS011;9830;41.876;23.474;2023-01-15T07:05:14;1.63;;;1.53;;
19388;SDS011;9830;41.876;23.474;2023-01-15T07:07:40;1.83;;;1.00;;
19388;SDS011;9830;41.876;23.474;2023-01-15T07:10:06;7.03;;;1.43;;
19388;SDS011;9830;41.876;23.474;2023-01-15T07:12:33;1.87;;;0.87;;
19388;SDS011;9830;41.876;23.474;2023-01-15T07:14:59;1.03;;;0.97;;
19388;SDS011;9830;41.876;23.474;2023-01-15T07:17:25;1.73;;;1.57;;
19388;SDS011;9830;41.876;23.474;2023-01-15T07:19:50;1.00;;;1.00;;
19388;SDS011;9830;41.876;23.474;2023-01-15T07:22:16;4.40;;;2.73;;
19388;SDS011;9830;41.876;23.474;2023-01-15T07:24:42;5.47;;;3.27;;
19388;SDS011;9830;41.876;23.474;2023-01-15T07:27:07;8.33;;;2.10;;
19388;SDS011;9830;41.876;23.474;2023-01-15T07:29:33;1.57;;;1.47;;
19388;SDS011;9830;41.876;23.474;2023-01-15T07:31:59;1.00;;;1.00;;
19388;SDS011;9830;41.876;23.474;2023-01-15T07:34:24;0.90;;;0.90;;
19388;SDS011;9830;41.876;23.474;2023-01-15T07:36:50;0.83;;;0.83;;
19388;SDS011;9830;41.876;23.474;2023-01-15T07:39:16;0.83;;;0.83;;
19388;SDS011;9830;41.876;23.474;2023-01-15T07:41:42;1.03;;;1.03;;
19388;SDS011;9830;41.876;23.474;2023-01-15T07:44:26;1.80;;;1.67;;
19388;SDS011;9830;41.876;23.474;2023-01-15T07:47:14;3.37;;;2.00;;
19388;SDS011;9830;41.876;23.474;2023-01-15T07:49:59;1.70;;;1.53;;
19388;SDS011;9830;41.876;23.474;2023-01-15T07:52:26;2.67;;;0.80;;
19388;SDS011;9830;41.876;23.474;2023-01-15T07:54:51;1.43;;;1.33;;
19388;SDS011;9830;41.876;23.474;2023-01-15T07:57:18;1.20;;;1.13;;
19388;SDS011;9830;41.876;23.474;2023-01-15T07:59:45;1.10;;;0.90;;
19388;SDS011;9830;41.876;23.474;2023-01-15T08:02:11;1.83;;;1.53;;
19388;SDS011;9830;41.876;23.474;2023-01-15T08:04:37;1.33;;;1.30;;
19388;SDS011;9830;41.876;23.474;2023-01-15T08:07:03;1.93;;;1.30;;
19388;SDS011;9830;41.876;23.474;2023-01-15T08:09:29;4.00;;;1.20;;
19388;SDS011;9830;41.876;23.474;2023-01-15T08:11:57;0.73;;;0.73;;
19388;SDS011;9830;41.876;23.474;2023-01-15T08:14:42;0.90;;;0.90;;
19388;SDS011;9830;41.876;23.474;2023-01-15T08:17:27;3.30;;;1.00;;
19388;SDS011;9830;41.876;23.474;2023-01-15T08:19:53;1.50;;;1.40;;
19388;SDS011;9830;41.876;23.474;2023-01-15T08:22:18;7.33;;;1.70;;
19388;SDS011;9830;41.876;23.474;2023-01-15T08:24:44;8.83;;;1.80;;
19388;SDS011;9830;41.876;23.474;2023-01-15T08:27:10;0.60;;;0.60;;
19388;SDS011;9830;41.876;23.474;2023-01-15T08:29:37;1.90;;;1.60;;
19388;SDS011;9830;41.876;23.474;2023-01-15T08:32:03;1.93;;;1.77;;
19388;SDS011;9830;41.876;23.474;2023-01-15T08:34:30;2.27;;;2.07;;
19388;SDS011;9830;41.876;23.474;2023-01-15T08:36:55;2.90;;;2.70;;
19388;SDS011;9830;41.876;23.474;2023-01-15T08:39:24;1.80;;;1.63;;
19388;SDS011;9830;41.876;23.474;2023-01-15T08:41:51;2.77;;;2.40;;
19388;SDS011;9830;41.876;23.474;2023-01-15T08:44:17;2.37;;;2.27;;
19388;SDS011;9830;41.876;23.474;2023-01-15T08:46:45;1.80;;;1.67;;
19388;SDS011;9830;41.876;23.474;2023-01-15T08:49:17;1.60;;;1.50;;
19388;SDS011;9830;41.876;23.474;2023-01-15T08:51:44;1.50;;;1.40;;
19388;SDS011;9830;41.876;23.474;2023-01-15T08:54:13;1.53;;;1.43;;
19388;SDS011;9830;41.876;23.474;2023-01-15T08:56:40;0.97;;;0.90;;
19388;SDS011;9830;41.876;23.474;2023-01-15T08:59:06;4.13;;;2.20;;
19388;SDS011;9830;41.876;23.474;2023-01-15T09:01:32;2.30;;;1.57;;
19388;SDS011;9830;41.876;23.474;2023-01-15T09:03:58;2.70;;;2.03;;
19388;SDS011;9830;41.876;23.474;2023-01-15T09:06:24;1.07;;;1.07;;
19388;SDS011;9830;41.876;23.474;2023-01-15T09:08:50;1.27;;;1.17;;
19388;SDS011;9830;41.876;23.474;2023-01-15T09:11:16;2.30;;;1.80;;
19388;SDS011;9830;41.876;23.474;2023-01-15T09:13:42;3.37;;;2.10;;
19388;SDS011;9830;41.876;23.474;2023-01-15T09:16:07;2.20;;;2.03;;
19388;SDS011;9830;41.876;23.474;2023-01-15T09:18:35;2.53;;;1.30;;
19388;SDS011;9830;41.876;23.474;2023-01-15T09:21:01;0.40;;;0.40;;
19388;SDS011;9830;41.876;23.474;2023-01-15T09:23:27;0.67;;;0.67;;
19388;SDS011;9830;41.876;23.474;2023-01-15T09:25:57;1.63;;;1.10;;
19388;SDS011;9830;41.876;23.474;2023-01-15T09:28:24;3.33;;;0.80;;
19388;SDS011;9830;41.876;23.474;2023-01-15T09:30:50;0.90;;;0.90;;
19388;SDS011;9830;41.876;23.474;2023-01-15T09:33:16;1.00;;;1.00;;
19388;SDS011;9830;41.876;23.474;2023-01-15T09:35:42;0.77;;;0.77;;
19388;SDS011;9830;41.876;23.474;2023-01-15T09:38:12;1.03;;;1.03;;
19388;SDS011;9830;41.876;23.474;2023-01-15T09:46:07;3.00;;;0.93;;
19388;SDS011;9830;41.876;23.474;2023-01-15T09:54:13;1.57;;;0.73;;
19388;SDS011;9830;41.876;23.474;2023-01-15T09:56:45;0.60;;;0.60;;
19388;SDS011;9830;41.876;23.474;2023-01-15T09:59:26;4.63;;;1.30;;
19388;SDS011;9830;41.876;23.474;2023-01-15T10:01:57;2.00;;;1.80;;
19388;SDS011;9830;41.876;23.474;2023-01-15T10:04:36;1.07;;;1.07;;
19388;SDS011;9830;41.876;23.474;2023-01-15T10:07:13;0.80;;;0.80;;
19388;SDS011;9830;41.876;23.474;2023-01-15T10:09:45;4.13;;;1.30;;
19388;SDS011;9830;41.876;23.474;2023-01-15T10:12:23;0.30;;;0.30;;
19388;SDS011;9830;41.876;23.474;2023-01-15T10:17:37;0.60;;;0.60;;
19388;SDS011;9830;41.876;23.474;2023-01-15T10:20:05;0.63;;;0.63;;
19388;SDS011;9830;41.876;23.474;2023-01-15T10:25:57;1.43;;;1.33;;
19388;SDS011;9830;41.876;23.474;2023-01-15T10:31:47;0.90;;;0.77;;
19388;SDS011;9830;41.876;23.474;2023-01-15T10:36:47;6.60;;;0.97;;
19388;SDS011;9830;41.876;23.474;2023-01-15T10:45:20;1.33;;;0.93;;
19388;SDS011;9830;41.876;23.474;2023-01-15T10:47:51;0.30;;;0.20;;
19388;SDS011;9830;41.876;23.474;2023-01-15T10:50:22;3.93;;;0.57;;
19388;SDS011;9830;41.876;23.474;2023-01-15T10:52:51;0.93;;;0.37;;
19388;SDS011;9830;41.876;23.474;2023-01-15T10:55:25;1.37;;;0.50;;
19388;SDS011;9830;41.876;23.474;2023-01-15T10:58:36;0.77;;;0.77;;
19388;SDS011;9830;41.876;23.474;2023-01-15T11:00:54;0.73;;;0.73;;
19388;SDS011;9830;41.876;23.474;2023-01-15T11:03:28;0.73;;;0.73;;
19388;SDS011;9830;41.876;23.474;2023-01-15T11:06:06;0.80;;;0.80;;
19388;SDS011;9830;41.876;23.474;2023-01-15T11:08:37;0.33;;;0.33;;
19388;SDS011;9830;41.876;23.474;2023-01-15T11:11:20;1.83;;;0.70;;
19388;SDS011;9830;41.876;23.474;2023-01-15T11:14:12;0.57;;;0.57;;
19388;SDS011;9830;41.876;23.474;2023-01-15T11:16:56;0.30;;;0.30;;
19388;SDS011;9830;41.876;23.474;2023-01-15T11:19:40;0.60;;;0.60;;
19388;SDS011;9830;41.876;23.474;2023-01-15T11:22:17;0.53;;;0.53;;
19388;SDS011;9830;41.876;23.474;2023-01-15T11:24:57;1.80;;;0.77;;
19388;SDS011;9830;41.876;23.474;2023-01-15T11:27:25;1.10;;;0.23;;
19388;SDS011;9830;41.876;23.474;2023-01-15T11:30:00;0.40;;;0.40;;
19388;SDS011;9830;41.876;23.474;2023-01-15T11:32:32;1.03;;;0.73;;
19388;SDS011;9830;41.876;23.474;2023-01-15T11:35:21;0.07;;;0.07;;
19388;SDS011;9830;41.876;23.474;2023-01-15T11:37:45;2.33;;;0.67;;
19388;SDS011;9830;41.876;23.474;2023-01-15T11:40:15;1.80;;;1.00;;
19388;SDS011;9830;41.876;23.474;2023-01-15T11:42:46;0.73;;;0.73;;
19388;SDS011;9830;41.876;23.474;2023-01-15T11:45:31;1.00;;;0.80;;
19388;SDS011;9830;41.876;23.474;2023-01-15T11:48:22;1.90;;;0.73;;
19388;SDS011;9830;41.876;23.474;2023-01-15T11:51:07;0.40;;;0.40;;
19388;SDS011;9830;41.876;23.474;2023-01-15T11:53:52;0.03;;;0.03;;
19388;SDS011;9830;41.876;23.474;2023-01-15T11:56:24;6.57;;;1.63;;
19388;SDS011;9830;41.876;23.474;2023-01-15T11:58:53;0.57;;;0.57;;
19388;SDS011;9830;41.876;23.474;2023-01-15T12:01:37;1.40;;;0.70;;
19388;SDS011;9830;41.876;23.474;2023-01-15T12:07:01;4.47;;;0.83;;
19388;SDS011;9830;41.876;23.474;2023-01-15T12:26:31;0.33;;;0.33;;
19388;SDS011;9830;41.876;23.474;2023-01-15T12:29:25;0.43;;;0.43;;
19388;SDS011;9830;41.876;23.474;2023-01-15T12:31:57;4.50;;;0.77;;
19388;SDS011;9830;41.876;23.474;2023-01-15T12:37:12;1.40;;;1.23;;
19388;SDS011;9830;41.876;23.474;2023-01-15T12:39:52;0.07;;;0.07;;
19388;SDS011;9830;41.876;23.474;2023-01-15T12:42:25;1.13;;;0.80;;
19388;SDS011;9830;41.876;23.474;2023-01-15T12:45:30;5.17;;;0.60;;
19388;SDS011;9830;41.876;23.474;2023-01-15T12:50:37;1.67;;;0.50;;
19388;SDS011;9830;41.876;23.474;2023-01-15T12:53:16;0.60;;;0.60;;
19388;SDS011;9830;41.876;23.474;2023-01-15T12:56:00;0.13;;;0.13;;
19388;SDS011;9830;41.876;23.474;2023-01-15T13:01:30;0.30;;;0.17;;
19388;SDS011;9830;41.876;23.474;2023-01-15T13:04:11;0.20;;;0.20;;
19388;SDS011;9830;41.876;23.474;2023-01-15T13:06:52;0.43;;;0.30;;
19388;SDS011;9830;41.876;23.474;2023-01-15T13:12:13;0.10;;;0.10;;
19388;SDS011;9830;41.876;23.474;2023-01-15T13:14:40;0.20;;;0.20;;
19388;SDS011;9830;41.876;23.474;2023-01-15T13:17:19;0.30;;;0.20;;
19388;SDS011;9830;41.876;23.474;2023-01-15T13:22:51;0.13;;;0.13;;
19388;SDS011;9830;41.876;23.474;2023-01-15T13:28:20;0.23;;;0.23;;
19388;SDS011;9830;41.876;23.474;2023-01-15T13:30:55;1.07;;;0.90;;
19388;SDS011;9830;41.876;23.474;2023-01-15T13:36:31;0.73;;;0.70;;
19388;SDS011;9830;41.876;23.474;2023-01-15T13:39:04;0.77;;;0.77;;
19388;SDS011;9830;41.876;23.474;2023-01-15T13:41:35;1.47;;;1.30;;
19388;SDS011;9830;41.876;23.474;2023-01-15T13:44:24;0.80;;;0.80;;
19388;SDS011;9830;41.876;23.474;2023-01-15T13:47:06;0.27;;;0.27;;
19388;SDS011;9830;41.876;23.474;2023-01-15T13:49:39;2.87;;;0.83;;
19388;SDS011;9830;41.876;23.474;2023-01-15T13:52:27;0.20;;;0.20;;
19388;SDS011;9830;41.876;23.474;2023-01-15T13:54:53;0.97;;;0.93;;
19388;SDS011;9830;41.876;23.474;2023-01-15T13:57:24;0.70;;;0.70;;
19388;SDS011;9830;41.876;23.474;2023-01-15T14:00:02;4.53;;;1.63;;
19388;SDS011;9830;41.876;23.474;2023-01-15T14:05:22;1.60;;;1.17;;
19388;SDS011;9830;41.876;23.474;2023-01-15T14:07:52;1.73;;;0.53;;
19388;SDS011;9830;41.876;23.474;2023-01-15T14:35:17;2.23;;;1.50;;
19388;SDS011;9830;41.876;23.474;2023-01-15T14:37:49;0.50;;;0.50;;
19388;SDS011;9830;41.876;23.474;2023-01-15T14:40:25;0.13;;;0.13;;
19388;SDS011;9830;41.876;23.474;2023-01-15T14:42:54;2.60;;;0.30;;
19388;SDS011;9830;41.876;23.474;2023-01-15T14:45:29;1.17;;;0.97;;
19388;SDS011;9830;41.876;23.474;2023-01-15T14:48:04;0.30;;;0.30;;
19388;SDS011;9830;41.876;23.474;2023-01-15T14:50:41;0.80;;;0.80;;
19388;SDS011;9830;41.876;23.474;2023-01-15T14:55:40;25.63;;;0.53;;
19388;SDS011;9830;41.876;23.474;2023-01-15T15:06:47;0.50;;;0.50;;
19388;SDS011;9830;41.876;23.474;2023-01-15T15:09:25;1.60;;;1.50;;
19388;SDS011;9830;41.876;23.474;2023-01-15T15:12:06;0.93;;;0.47;;
19388;SDS011;9830;41.876;23.474;2023-01-15T15:17:22;0.17;;;0.17;;
19388;SDS011;9830;41.876;23.474;2023-01-15T15:20:23;2.03;;;0.50;;
19388;SDS011;9830;41.876;23.474;2023-01-15T15:22:53;0.87;;;0.63;;
19388;SDS011;9830;41.876;23.474;2023-01-15T15:25:22;0.10;;;0.10;;
19388;SDS011;9830;41.876;23.474;2023-01-15T15:28:03;3.33;;;1.47;;
19388;SDS011;9830;41.876;23.474;2023-01-15T15:30:31;0.80;;;0.57;;
19388;SDS011;9830;41.876;23.474;2023-01-15T15:33:01;0.80;;;0.63;;
19388;SDS011;9830;41.876;23.474;2023-01-15T15:35:29;2.27;;;0.70;;
19388;SDS011;9830;41.876;23.474;2023-01-15T15:37:59;1.27;;;1.17;;
19388;SDS011;9830;41.876;23.474;2023-01-15T15:40:32;0.33;;;0.33;;
19388;SDS011;9830;41.876;23.474;2023-01-15T15:45:54;0.20;;;0.20;;
19388;SDS011;9830;41.876;23.474;2023-01-15T15:48:39;1.63;;;1.53;;
19388;SDS011;9830;41.876;23.474;2023-01-15T15:54:03;2.20;;;1.70;;
19388;SDS011;9830;41.876;23.474;2023-01-15T15:56:33;0.80;;;0.63;;
19388;SDS011;9830;41.876;23.474;2023-01-15T15:58:59;1.80;;;0.73;;
19388;SDS011;9830;41.876;23.474;2023-01-15T16:01:25;0.10;;;0.10;;
19388;SDS011;9830;41.876;23.474;2023-01-15T16:03:51;0.97;;;0.97;;
19388;SDS011;9830;41.876;23.474;2023-01-15T16:06:20;2.90;;;0.47;;
19388;SDS011;9830;41.876;23.474;2023-01-15T16:08:53;0.43;;;0.43;;
19388;SDS011;9830;41.876;23.474;2023-01-15T16:11:25;0.57;;;0.57;;
19388;SDS011;9830;41.876;23.474;2023-01-15T16:13:52;0.83;;;0.67;;
19388;SDS011;9830;41.876;23.474;2023-01-15T16:16:20;0.30;;;0.30;;
19388;SDS011;9830;41.876;23.474;2023-01-15T16:18:51;1.40;;;1.07;;
19388;SDS011;9830;41.876;23.474;2023-01-15T16:21:20;0.53;;;0.40;;
19388;SDS011;9830;41.876;23.474;2023-01-15T16:24:02;3.87;;;0.77;;
19388;SDS011;9830;41.876;23.474;2023-01-15T16:26:46;3.07;;;1.00;;
19388;SDS011;9830;41.876;23.474;2023-01-15T16:29:20;0.83;;;0.83;;
19388;SDS011;9830;41.876;23.474;2023-01-15T16:31:49;1.43;;;1.30;;
19388;SDS011;9830;41.876;23.474;2023-01-15T16:34:19;2.63;;;1.03;;
19388;SDS011;9830;41.876;23.474;2023-01-15T16:36:47;2.80;;;1.20;;
19388;SDS011;9830;41.876;23.474;2023-01-15T16:39:16;1.40;;;1.33;;
19388;SDS011;9830;41.876;23.474;2023-01-15T16:41:45;1.60;;;1.33;;
19388;SDS011;9830;41.876;23.474;2023-01-15T16:44:21;1.60;;;1.50;;
19388;SDS011;9830;41.876;23.474;2023-01-15T16:47:01;0.40;;;0.40;;
19388;SDS011;9830;41.876;23.474;2023-01-15T16:49:31;4.17;;;2.43;;
19388;SDS011;9830;41.876;23.474;2023-01-15T16:51:59;3.70;;;1.83;;
19388;SDS011;9830;41.876;23.474;2023-01-15T17:00:27;4.70;;;1.53;;
19388;SDS011;9830;41.876;23.474;2023-01-15T17:02:54;1.90;;;1.70;;
19388;SDS011;9830;41.876;23.474;2023-01-15T17:05:21;1.50;;;1.00;;
19388;SDS011;9830;41.876;23.474;2023-01-15T17:07:49;1.83;;;1.40;;
19388;SDS011;9830;41.876;23.474;2023-01-15T17:10:22;4.83;;;1.37;;
19388;SDS011;9830;41.876;23.474;2023-01-15T17:12:50;0.60;;;0.43;;
19388;SDS011;9830;41.876;23.474;2023-01-15T17:17:48;5.30;;;2.13;;
19388;SDS011;9830;41.876;23.474;2023-01-15T17:20:15;2.97;;;1.90;;
19388;SDS011;9830;41.876;23.474;2023-01-15T17:22:43;6.90;;;2.47;;
19388;SDS011;9830;41.876;23.474;2023-01-15T17:27:51;7.37;;;3.63;;
19388;SDS011;9830;41.876;23.474;2023-01-15T17:30:21;1.93;;;1.83;;
19388;SDS011;9830;41.876;23.474;2023-01-15T17:32:50;12.87;;;3.97;;
19388;SDS011;9830;41.876;23.474;2023-01-15T17:35:23;5.63;;;2.90;;